UKLL/LWO METAR and TAF weather

Enter ICAO airport designator
Station Type Date Time Source
UKLL METAR 2019/10/23 20:30 UTC NOAA

UKLL 232030Z 12002MPS 4600 0900SE R31/1900 PRFG NSC 10/10 Q1021 R31/CLRD// TEMPO 2100 BR


Station Type Date Time Source
UKLL Decoded METAR 2019/10/23 20:30 UTC NOAA

L'Viv, Ukraine (UKLL) 49-49N 023-57E 323M
Oct 23, 2019 - 04:30 PM EDT / 2019.10.23 2030 UTC
Wind: from the ESE (120 degrees) at 4 MPH (4 KT):0
Visibility: 2 mile(s):0
Weather: partial fog
Temperature: 50 F (10 C)
Dew Point: 50 F (10 C)
Relative Humidity: 100%
Pressure (altimeter): 30.15 in. Hg (1021 hPa)
ob: UKLL 232030Z 12002MPS 4600 0900SE R31/1900 PRFG NSC 10/10 Q1021 R31/CLRD// TEMPO 2100 BR
cycle: 20

Station Type Date Time Source
UKLL TAF 2019/10/23 18:15 UTC NOAA

TAF UKLL 231703Z 2318/2418 VRB01MPS 2100 BR SCT003 OVC007
TEMPO 2318/2320 0300 FG VV002
BECMG 2320/2322 0200 FG VV001
BECMG 2407/2409 14004MPS 5000 BR SCT010
TEMPO 2415/2418 2100 BR SCT003 OVC007

Example: see airport list